sensor_id;sensor_type;location;lat;lon;timestamp;P1;durP1;ratioP1;P2;durP2;ratioP2
17197;SDS011;8715;51.010;6.812;2024-02-15T00:02:41;844.72;;;797.58;;
17197;SDS011;8715;51.010;6.812;2024-02-15T00:05:28;851.92;;;804.08;;
17197;SDS011;8715;51.010;6.812;2024-02-15T00:08:13;846.15;;;798.58;;
17197;SDS011;8715;51.010;6.812;2024-02-15T00:11:00;850.50;;;802.78;;
17197;SDS011;8715;51.010;6.812;2024-02-15T00:13:46;856.88;;;808.42;;
17197;SDS011;8715;51.010;6.812;2024-02-15T00:16:31;849.90;;;801.65;;
17197;SDS011;8715;51.010;6.812;2024-02-15T00:19:16;851.22;;;803.28;;
17197;SDS011;8715;51.010;6.812;2024-02-15T00:22:02;857.92;;;809.38;;
17197;SDS011;8715;51.010;6.812;2024-02-15T00:24:48;853.00;;;804.63;;
17197;SDS011;8715;51.010;6.812;2024-02-15T00:27:34;857.08;;;808.47;;
17197;SDS011;8715;51.010;6.812;2024-02-15T00:30:22;852.42;;;804.22;;
17197;SDS011;8715;51.010;6.812;2024-02-15T00:33:07;848.42;;;800.33;;
17197;SDS011;8715;51.010;6.812;2024-02-15T00:35:52;855.08;;;806.60;;
17197;SDS011;8715;51.010;6.812;2024-02-15T00:38:38;852.20;;;803.50;;
17197;SDS011;8715;51.010;6.812;2024-02-15T00:41:23;859.17;;;809.80;;
17197;SDS011;8715;51.010;6.812;2024-02-15T00:44:08;847.53;;;799.57;;
17197;SDS011;8715;51.010;6.812;2024-02-15T00:46:56;854.28;;;805.55;;
17197;SDS011;8715;51.010;6.812;2024-02-15T00:49:42;846.50;;;798.83;;
17197;SDS011;8715;51.010;6.812;2024-02-15T00:52:30;846.65;;;798.95;;
17197;SDS011;8715;51.010;6.812;2024-02-15T00:55:16;855.95;;;807.47;;
17197;SDS011;8715;51.010;6.812;2024-02-15T00:58:01;856.45;;;807.88;;
17197;SDS011;8715;51.010;6.812;2024-02-15T01:00:47;853.08;;;804.75;;
17197;SDS011;8715;51.010;6.812;2024-02-15T01:03:34;851.17;;;803.38;;
17197;SDS011;8715;51.010;6.812;2024-02-15T01:06:20;849.03;;;800.50;;
17197;SDS011;8715;51.010;6.812;2024-02-15T01:09:05;857.65;;;808.30;;
17197;SDS011;8715;51.010;6.812;2024-02-15T01:11:52;850.75;;;802.22;;
17197;SDS011;8715;51.010;6.812;2024-02-15T01:14:38;858.22;;;809.38;;
17197;SDS011;8715;51.010;6.812;2024-02-15T01:17:23;856.03;;;807.05;;
17197;SDS011;8715;51.010;6.812;2024-02-15T01:20:10;852.10;;;803.72;;
17197;SDS011;8715;51.010;6.812;2024-02-15T01:22:56;854.83;;;805.85;;
17197;SDS011;8715;51.010;6.812;2024-02-15T01:25:41;851.65;;;803.05;;
17197;SDS011;8715;51.010;6.812;2024-02-15T01:28:26;851.42;;;802.83;;
17197;SDS011;8715;51.010;6.812;2024-02-15T01:31:11;859.05;;;810.10;;
17197;SDS011;8715;51.010;6.812;2024-02-15T01:33:57;853.17;;;804.70;;
17197;SDS011;8715;51.010;6.812;2024-02-15T01:36:43;850.65;;;802.97;;
17197;SDS011;8715;51.010;6.812;2024-02-15T01:39:28;847.05;;;799.55;;
17197;SDS011;8715;51.010;6.812;2024-02-15T01:42:14;844.10;;;796.88;;
17197;SDS011;8715;51.010;6.812;2024-02-15T01:44:59;848.25;;;800.50;;
17197;SDS011;8715;51.010;6.812;2024-02-15T01:47:44;853.20;;;804.67;;
17197;SDS011;8715;51.010;6.812;2024-02-15T01:50:30;857.45;;;808.83;;
17197;SDS011;8715;51.010;6.812;2024-02-15T01:53:18;847.47;;;799.72;;
17197;SDS011;8715;51.010;6.812;2024-02-15T01:56:04;853.28;;;804.95;;
17197;SDS011;8715;51.010;6.812;2024-02-15T01:58:49;842.25;;;795.33;;
17197;SDS011;8715;51.010;6.812;2024-02-15T02:01:35;850.42;;;802.72;;
17197;SDS011;8715;51.010;6.812;2024-02-15T02:04:21;849.50;;;802.17;;
17197;SDS011;8715;51.010;6.812;2024-02-15T02:07:06;839.75;;;793.33;;
17197;SDS011;8715;51.010;6.812;2024-02-15T02:09:54;847.33;;;799.92;;
17197;SDS011;8715;51.010;6.812;2024-02-15T02:12:40;848.65;;;801.00;;
17197;SDS011;8715;51.010;6.812;2024-02-15T02:15:25;838.08;;;792.20;;
17197;SDS011;8715;51.010;6.812;2024-02-15T02:18:12;852.30;;;804.80;;
17197;SDS011;8715;51.010;6.812;2024-02-15T02:20:58;846.30;;;799.75;;
17197;SDS011;8715;51.010;6.812;2024-02-15T02:23:48;843.05;;;796.60;;
17197;SDS011;8715;51.010;6.812;2024-02-15T02:26:39;839.22;;;793.08;;
17197;SDS011;8715;51.010;6.812;2024-02-15T02:29:41;847.97;;;801.35;;
17197;SDS011;8715;51.010;6.812;2024-02-15T02:32:29;847.22;;;800.10;;
17197;SDS011;8715;51.010;6.812;2024-02-15T02:35:14;847.03;;;800.50;;
17197;SDS011;8715;51.010;6.812;2024-02-15T02:38:01;841.40;;;795.47;;
17197;SDS011;8715;51.010;6.812;2024-02-15T02:41:02;836.17;;;790.65;;
17197;SDS011;8715;51.010;6.812;2024-02-15T02:50:07;818.33;;;774.80;;
17197;SDS011;8715;51.010;6.812;2024-02-15T02:52:53;818.33;;;774.40;;
17197;SDS011;8715;51.010;6.812;2024-02-15T02:55:38;820.30;;;776.70;;
17197;SDS011;8715;51.010;6.812;2024-02-15T02:58:24;820.03;;;776.28;;
17197;SDS011;8715;51.010;6.812;2024-02-15T03:01:09;818.05;;;774.50;;
17197;SDS011;8715;51.010;6.812;2024-02-15T03:03:54;816.05;;;772.70;;
17197;SDS011;8715;51.010;6.812;2024-02-15T03:06:41;821.17;;;777.22;;
17197;SDS011;8715;51.010;6.812;2024-02-15T03:09:26;815.67;;;772.55;;
17197;SDS011;8715;51.010;6.812;2024-02-15T03:12:12;831.20;;;786.38;;
17197;SDS011;8715;51.010;6.812;2024-02-15T03:14:57;820.53;;;776.47;;
17197;SDS011;8715;51.010;6.812;2024-02-15T03:17:44;813.35;;;770.20;;
17197;SDS011;8715;51.010;6.812;2024-02-15T03:20:29;821.17;;;777.17;;
17197;SDS011;8715;51.010;6.812;2024-02-15T03:23:15;815.95;;;772.78;;
17197;SDS011;8715;51.010;6.812;2024-02-15T03:26:01;815.85;;;772.22;;
17197;SDS011;8715;51.010;6.812;2024-02-15T03:28:46;813.05;;;769.95;;
17197;SDS011;8715;51.010;6.812;2024-02-15T03:31:31;822.25;;;778.17;;
17197;SDS011;8715;51.010;6.812;2024-02-15T03:34:17;824.95;;;780.65;;
17197;SDS011;8715;51.010;6.812;2024-02-15T03:37:05;826.30;;;781.75;;
17197;SDS011;8715;51.010;6.812;2024-02-15T03:39:52;822.42;;;778.45;;
17197;SDS011;8715;51.010;6.812;2024-02-15T03:42:37;820.67;;;776.78;;
17197;SDS011;8715;51.010;6.812;2024-02-15T03:45:22;819.25;;;775.67;;
17197;SDS011;8715;51.010;6.812;2024-02-15T03:48:08;811.28;;;768.42;;
17197;SDS011;8715;51.010;6.812;2024-02-15T03:50:54;819.65;;;776.13;;
17197;SDS011;8715;51.010;6.812;2024-02-15T03:53:40;823.45;;;779.25;;
17197;SDS011;8715;51.010;6.812;2024-02-15T03:56:26;808.85;;;766.05;;
17197;SDS011;8715;51.010;6.812;2024-02-15T03:59:12;816.92;;;773.03;;
17197;SDS011;8715;51.010;6.812;2024-02-15T04:01:57;818.03;;;774.53;;
17197;SDS011;8715;51.010;6.812;2024-02-15T04:04:42;811.10;;;767.97;;
17197;SDS011;8715;51.010;6.812;2024-02-15T04:07:30;818.58;;;775.22;;
17197;SDS011;8715;51.010;6.812;2024-02-15T04:10:16;818.95;;;774.97;;
17197;SDS011;8715;51.010;6.812;2024-02-15T04:13:03;817.90;;;774.40;;
17197;SDS011;8715;51.010;6.812;2024-02-15T04:15:48;817.28;;;773.70;;
17197;SDS011;8715;51.010;6.812;2024-02-15T04:18:34;816.92;;;773.58;;
17197;SDS011;8715;51.010;6.812;2024-02-15T04:21:19;814.35;;;771.22;;
17197;SDS011;8715;51.010;6.812;2024-02-15T04:24:04;817.85;;;774.35;;
17197;SDS011;8715;51.010;6.812;2024-02-15T04:26:50;806.60;;;764.22;;
17197;SDS011;8715;51.010;6.812;2024-02-15T04:29:36;823.10;;;778.95;;
17197;SDS011;8715;51.010;6.812;2024-02-15T04:32:23;813.95;;;770.90;;
17197;SDS011;8715;51.010;6.812;2024-02-15T04:35:08;814.20;;;770.78;;
17197;SDS011;8715;51.010;6.812;2024-02-15T04:37:53;814.22;;;771.08;;
17197;SDS011;8715;51.010;6.812;2024-02-15T04:40:38;812.65;;;769.80;;
17197;SDS011;8715;51.010;6.812;2024-02-15T04:43:23;819.58;;;775.78;;
17197;SDS011;8715;51.010;6.812;2024-02-15T04:46:10;815.05;;;771.67;;
17197;SDS011;8715;51.010;6.812;2024-02-15T04:48:55;814.60;;;771.15;;
17197;SDS011;8715;51.010;6.812;2024-02-15T04:51:42;818.67;;;774.92;;
17197;SDS011;8715;51.010;6.812;2024-02-15T04:54:27;822.38;;;778.33;;
17197;SDS011;8715;51.010;6.812;2024-02-15T04:57:12;809.75;;;767.10;;
17197;SDS011;8715;51.010;6.812;2024-02-15T04:59:57;815.53;;;772.08;;
17197;SDS011;8715;51.010;6.812;2024-02-15T05:02:44;813.40;;;769.92;;
17197;SDS011;8715;51.010;6.812;2024-02-15T05:05:30;816.15;;;772.60;;
17197;SDS011;8715;51.010;6.812;2024-02-15T05:08:15;812.80;;;769.63;;
17197;SDS011;8715;51.010;6.812;2024-02-15T05:11:00;815.42;;;771.80;;
17197;SDS011;8715;51.010;6.812;2024-02-15T05:13:48;813.15;;;769.97;;
17197;SDS011;8715;51.010;6.812;2024-02-15T05:16:34;815.03;;;771.58;;
17197;SDS011;8715;51.010;6.812;2024-02-15T05:19:27;824.30;;;779.72;;
17197;SDS011;8715;51.010;6.812;2024-02-15T05:22:14;818.35;;;774.78;;
17197;SDS011;8715;51.010;6.812;2024-02-15T05:24:59;815.95;;;772.42;;
17197;SDS011;8715;51.010;6.812;2024-02-15T05:27:45;820.60;;;776.67;;
17197;SDS011;8715;51.010;6.812;2024-02-15T05:30:30;815.30;;;771.53;;
17197;SDS011;8715;51.010;6.812;2024-02-15T05:33:16;817.45;;;774.10;;
17197;SDS011;8715;51.010;6.812;2024-02-15T05:36:02;814.35;;;770.83;;
17197;SDS011;8715;51.010;6.812;2024-02-15T05:38:49;817.97;;;774.50;;
17197;SDS011;8715;51.010;6.812;2024-02-15T05:41:34;819.88;;;775.67;;
17197;SDS011;8715;51.010;6.812;2024-02-15T05:44:20;813.40;;;770.15;;
17197;SDS011;8715;51.010;6.812;2024-02-15T05:47:06;815.28;;;771.83;;
17197;SDS011;8715;51.010;6.812;2024-02-15T05:49:50;821.50;;;777.25;;
17197;SDS011;8715;51.010;6.812;2024-02-15T05:52:37;819.83;;;775.65;;
17197;SDS011;8715;51.010;6.812;2024-02-15T05:55:22;814.13;;;770.95;;
17197;SDS011;8715;51.010;6.812;2024-02-15T05:58:09;818.53;;;774.88;;
17197;SDS011;8715;51.010;6.812;2024-02-15T06:00:55;819.55;;;775.70;;
17197;SDS011;8715;51.010;6.812;2024-02-15T06:03:45;819.30;;;775.78;;
17197;SDS011;8715;51.010;6.812;2024-02-15T06:06:32;821.67;;;777.95;;
17197;SDS011;8715;51.010;6.812;2024-02-15T06:09:18;820.13;;;776.25;;
17197;SDS011;8715;51.010;6.812;2024-02-15T06:12:06;822.22;;;778.20;;
17197;SDS011;8715;51.010;6.812;2024-02-15T06:14:51;809.92;;;766.80;;
17197;SDS011;8715;51.010;6.812;2024-02-15T06:17:37;812.45;;;769.33;;
17197;SDS011;8715;51.010;6.812;2024-02-15T06:20:22;824.67;;;780.58;;
17197;SDS011;8715;51.010;6.812;2024-02-15T06:23:08;824.33;;;779.97;;
17197;SDS011;8715;51.010;6.812;2024-02-15T06:25:54;824.67;;;780.08;;
17197;SDS011;8715;51.010;6.812;2024-02-15T06:28:40;823.95;;;779.55;;
17197;SDS011;8715;51.010;6.812;2024-02-15T06:31:43;818.45;;;774.65;;
17197;SDS011;8715;51.010;6.812;2024-02-15T06:34:46;822.50;;;778.28;;
17197;SDS011;8715;51.010;6.812;2024-02-15T06:37:48;822.40;;;778.83;;
17197;SDS011;8715;51.010;6.812;2024-02-15T06:40:51;813.92;;;770.55;;
17197;SDS011;8715;51.010;6.812;2024-02-15T06:43:39;821.95;;;777.85;;
17197;SDS011;8715;51.010;6.812;2024-02-15T06:46:24;824.90;;;780.45;;
17197;SDS011;8715;51.010;6.812;2024-02-15T06:49:09;816.92;;;772.80;;
17197;SDS011;8715;51.010;6.812;2024-02-15T06:51:54;821.22;;;776.60;;
17197;SDS011;8715;51.010;6.812;2024-02-15T06:54:40;821.33;;;776.72;;
17197;SDS011;8715;51.010;6.812;2024-02-15T06:57:25;820.15;;;775.97;;
17197;SDS011;8715;51.010;6.812;2024-02-15T07:00:12;817.83;;;774.08;;
17197;SDS011;8715;51.010;6.812;2024-02-15T07:05:43;818.97;;;775.20;;
17197;SDS011;8715;51.010;6.812;2024-02-15T07:08:29;812.80;;;769.53;;
17197;SDS011;8715;51.010;6.812;2024-02-15T07:11:14;814.30;;;770.60;;
17197;SDS011;8715;51.010;6.812;2024-02-15T07:13:59;811.42;;;768.25;;
17197;SDS011;8715;51.010;6.812;2024-02-15T07:16:45;823.58;;;779.30;;
17197;SDS011;8715;51.010;6.812;2024-02-15T07:19:30;819.78;;;775.70;;
17197;SDS011;8715;51.010;6.812;2024-02-15T07:22:19;814.85;;;771.25;;
17197;SDS011;8715;51.010;6.812;2024-02-15T07:25:06;823.53;;;779.10;;
17197;SDS011;8715;51.010;6.812;2024-02-15T07:27:51;821.00;;;776.72;;
17197;SDS011;8715;51.010;6.812;2024-02-15T07:30:36;821.35;;;777.15;;
17197;SDS011;8715;51.010;6.812;2024-02-15T07:33:22;823.78;;;779.33;;
17197;SDS011;8715;51.010;6.812;2024-02-15T07:36:07;823.67;;;778.97;;
17197;SDS011;8715;51.010;6.812;2024-02-15T07:38:53;828.65;;;783.45;;
17197;SDS011;8715;51.010;6.812;2024-02-15T07:41:38;817.05;;;772.85;;
17197;SDS011;8715;51.010;6.812;2024-02-15T07:44:23;825.28;;;780.72;;
17197;SDS011;8715;51.010;6.812;2024-02-15T07:47:08;816.03;;;772.20;;
17197;SDS011;8715;51.010;6.812;2024-02-15T07:49:55;820.30;;;775.78;;
17197;SDS011;8715;51.010;6.812;2024-02-15T07:52:40;820.13;;;776.25;;
17197;SDS011;8715;51.010;6.812;2024-02-15T07:55:25;825.15;;;779.80;;
17197;SDS011;8715;51.010;6.812;2024-02-15T07:58:11;828.28;;;783.08;;
17197;SDS011;8715;51.010;6.812;2024-02-15T08:00:58;821.85;;;777.17;;
17197;SDS011;8715;51.010;6.812;2024-02-15T08:03:43;821.13;;;776.67;;
17197;SDS011;8715;51.010;6.812;2024-02-15T08:06:30;828.97;;;783.42;;
17197;SDS011;8715;51.010;6.812;2024-02-15T08:09:16;824.50;;;779.70;;
17197;SDS011;8715;51.010;6.812;2024-02-15T08:12:04;829.10;;;784.22;;
17197;SDS011;8715;51.010;6.812;2024-02-15T08:14:49;826.13;;;781.20;;
17197;SDS011;8715;51.010;6.812;2024-02-15T08:17:33;830.55;;;785.05;;
17197;SDS011;8715;51.010;6.812;2024-02-15T08:20:21;824.15;;;778.95;;
17197;SDS011;8715;51.010;6.812;2024-02-15T08:23:07;824.05;;;779.35;;
17197;SDS011;8715;51.010;6.812;2024-02-15T08:25:54;819.50;;;775.15;;
17197;SDS011;8715;51.010;6.812;2024-02-15T08:28:39;818.92;;;774.35;;
17197;SDS011;8715;51.010;6.812;2024-02-15T08:31:24;833.08;;;787.10;;
17197;SDS011;8715;51.010;6.812;2024-02-15T08:34:09;833.30;;;787.17;;
17197;SDS011;8715;51.010;6.812;2024-02-15T08:36:58;824.97;;;779.50;;
17197;SDS011;8715;51.010;6.812;2024-02-15T08:39:44;832.40;;;786.67;;
17197;SDS011;8715;51.010;6.812;2024-02-15T08:42:29;827.13;;;781.42;;
17197;SDS011;8715;51.010;6.812;2024-02-15T08:45:14;830.17;;;784.53;;
17197;SDS011;8715;51.010;6.812;2024-02-15T08:47:59;833.08;;;787.45;;
17197;SDS011;8715;51.010;6.812;2024-02-15T08:50:48;833.10;;;786.83;;
17197;SDS011;8715;51.010;6.812;2024-02-15T08:53:33;834.65;;;788.60;;
17197;SDS011;8715;51.010;6.812;2024-02-15T08:56:19;834.97;;;788.78;;
17197;SDS011;8715;51.010;6.812;2024-02-15T08:59:07;833.85;;;787.53;;
17197;SDS011;8715;51.010;6.812;2024-02-15T09:01:52;831.25;;;785.35;;
17197;SDS011;8715;51.010;6.812;2024-02-15T09:04:38;835.63;;;789.20;;
17197;SDS011;8715;51.010;6.812;2024-02-15T09:07:25;834.05;;;787.35;;
17197;SDS011;8715;51.010;6.812;2024-02-15T09:10:10;839.22;;;792.40;;
17197;SDS011;8715;51.010;6.812;2024-02-15T09:12:57;827.78;;;781.40;;
17197;SDS011;8715;51.010;6.812;2024-02-15T09:15:42;832.03;;;785.63;;
17197;SDS011;8715;51.010;6.812;2024-02-15T09:18:27;831.35;;;785.03;;
17197;SDS011;8715;51.010;6.812;2024-02-15T09:21:12;835.53;;;788.75;;
17197;SDS011;8715;51.010;6.812;2024-02-15T09:23:58;839.92;;;792.50;;
17197;SDS011;8715;51.010;6.812;2024-02-15T09:26:43;834.05;;;786.88;;
17197;SDS011;8715;51.010;6.812;2024-02-15T09:29:30;839.80;;;792.08;;
17197;SDS011;8715;51.010;6.812;2024-02-15T09:32:16;835.33;;;787.78;;
17197;SDS011;8715;51.010;6.812;2024-02-15T09:35:00;831.58;;;784.47;;
17197;SDS011;8715;51.010;6.812;2024-02-15T09:37:47;844.70;;;796.55;;
17197;SDS011;8715;51.010;6.812;2024-02-15T09:40:33;835.75;;;788.13;;
17197;SDS011;8715;51.010;6.812;2024-02-15T09:43:19;845.33;;;796.85;;
17197;SDS011;8715;51.010;6.812;2024-02-15T09:46:05;846.05;;;797.10;;
17197;SDS011;8715;51.010;6.812;2024-02-15T09:48:50;837.35;;;789.35;;
17197;SDS011;8715;51.010;6.812;2024-02-15T09:51:41;851.67;;;802.08;;
17197;SDS011;8715;51.010;6.812;2024-02-15T09:54:27;848.00;;;798.08;;
17197;SDS011;8715;51.010;6.812;2024-02-15T09:57:13;843.35;;;794.00;;
17197;SDS011;8715;51.010;6.812;2024-02-15T09:59:58;853.78;;;803.45;;
17197;SDS011;8715;51.010;6.812;2024-02-15T10:02:44;850.53;;;800.28;;
17197;SDS011;8715;51.010;6.812;2024-02-15T10:05:29;850.25;;;800.20;;
17197;SDS011;8715;51.010;6.812;2024-02-15T10:08:15;842.47;;;792.97;;
17197;SDS011;8715;51.010;6.812;2024-02-15T10:11:07;851.60;;;801.40;;
17197;SDS011;8715;51.010;6.812;2024-02-15T10:13:53;849.85;;;800.08;;
17197;SDS011;8715;51.010;6.812;2024-02-15T10:16:38;846.22;;;796.35;;
17197;SDS011;8715;51.010;6.812;2024-02-15T10:19:25;843.50;;;794.05;;
17197;SDS011;8715;51.010;6.812;2024-02-15T10:22:11;848.90;;;799.20;;
17197;SDS011;8715;51.010;6.812;2024-02-15T10:25:10;845.80;;;796.40;;
17197;SDS011;8715;51.010;6.812;2024-02-15T10:28:01;854.47;;;803.88;;
17197;SDS011;8715;51.010;6.812;2024-02-15T10:30:46;852.75;;;801.83;;
17197;SDS011;8715;51.010;6.812;2024-02-15T10:33:33;854.35;;;803.30;;
17197;SDS011;8715;51.010;6.812;2024-02-15T10:36:21;853.13;;;801.85;;
17197;SDS011;8715;51.010;6.812;2024-02-15T10:39:10;853.70;;;802.05;;
17197;SDS011;8715;51.010;6.812;2024-02-15T10:41:56;856.10;;;804.45;;
17197;SDS011;8715;51.010;6.812;2024-02-15T10:44:41;859.63;;;807.53;;
17197;SDS011;8715;51.010;6.812;2024-02-15T10:47:27;858.78;;;806.65;;
17197;SDS011;8715;51.010;6.812;2024-02-15T10:50:12;857.10;;;805.25;;
17197;SDS011;8715;51.010;6.812;2024-02-15T10:52:59;859.30;;;806.92;;
17197;SDS011;8715;51.010;6.812;2024-02-15T10:55:44;867.22;;;814.13;;
17197;SDS011;8715;51.010;6.812;2024-02-15T10:58:32;857.00;;;804.92;;
17197;SDS011;8715;51.010;6.812;2024-02-15T11:01:18;863.95;;;810.95;;
17197;SDS011;8715;51.010;6.812;2024-02-15T11:04:07;862.67;;;810.00;;
17197;SDS011;8715;51.010;6.812;2024-02-15T11:06:52;867.30;;;813.22;;
17197;SDS011;8715;51.010;6.812;2024-02-15T11:09:41;860.28;;;806.78;;
17197;SDS011;8715;51.010;6.812;2024-02-15T11:12:27;865.80;;;811.42;;
17197;SDS011;8715;51.010;6.812;2024-02-15T11:15:17;867.75;;;813.03;;
17197;SDS011;8715;51.010;6.812;2024-02-15T11:21:52;867.47;;;812.75;;
17197;SDS011;8715;51.010;6.812;2024-02-15T11:24:37;870.03;;;814.85;;
17197;SDS011;8715;51.010;6.812;2024-02-15T11:27:31;873.22;;;817.28;;
17197;SDS011;8715;51.010;6.812;2024-02-15T11:30:17;878.90;;;822.35;;
17197;SDS011;8715;51.010;6.812;2024-02-15T11:33:27;881.83;;;824.53;;
17197;SDS011;8715;51.010;6.812;2024-02-15T11:36:13;877.00;;;819.95;;
17197;SDS011;8715;51.010;6.812;2024-02-15T11:39:00;878.33;;;821.25;;
17197;SDS011;8715;51.010;6.812;2024-02-15T11:41:56;883.10;;;825.83;;
17197;SDS011;8715;51.010;6.812;2024-02-15T11:45:05;877.63;;;821.05;;
17197;SDS011;8715;51.010;6.812;2024-02-15T11:47:52;881.08;;;823.63;;
17197;SDS011;8715;51.010;6.812;2024-02-15T11:50:37;884.28;;;826.42;;
17197;SDS011;8715;51.010;6.812;2024-02-15T11:53:23;880.95;;;823.17;;
17197;SDS011;8715;51.010;6.812;2024-02-15T11:56:08;881.92;;;823.83;;
17197;SDS011;8715;51.010;6.812;2024-02-15T11:59:02;886.90;;;828.40;;
17197;SDS011;8715;51.010;6.812;2024-02-15T12:01:51;885.92;;;827.17;;
17197;SDS011;8715;51.010;6.812;2024-02-15T12:04:54;892.75;;;833.38;;
17197;SDS011;8715;51.010;6.812;2024-02-15T12:07:57;889.50;;;830.28;;
17197;SDS011;8715;51.010;6.812;2024-02-15T12:10:59;885.30;;;826.83;;
17197;SDS011;8715;51.010;6.812;2024-02-15T12:14:02;889.03;;;830.03;;
17197;SDS011;8715;51.010;6.812;2024-02-15T12:17:07;889.03;;;829.80;;
17197;SDS011;8715;51.010;6.812;2024-02-15T12:20:09;889.53;;;830.60;;
17197;SDS011;8715;51.010;6.812;2024-02-15T12:22:55;890.22;;;830.60;;
17197;SDS011;8715;51.010;6.812;2024-02-15T12:25:40;889.83;;;830.33;;
17197;SDS011;8715;51.010;6.812;2024-02-15T12:28:25;890.55;;;830.25;;
17197;SDS011;8715;51.010;6.812;2024-02-15T12:31:10;894.40;;;833.92;;
17197;SDS011;8715;51.010;6.812;2024-02-15T12:34:02;892.80;;;832.42;;
17197;SDS011;8715;51.010;6.812;2024-02-15T12:36:50;893.22;;;833.10;;
17197;SDS011;8715;51.010;6.812;2024-02-15T12:39:36;892.65;;;832.25;;
17197;SDS011;8715;51.010;6.812;2024-02-15T12:42:21;893.40;;;833.33;;
17197;SDS011;8715;51.010;6.812;2024-02-15T12:45:06;893.10;;;833.08;;
17197;SDS011;8715;51.010;6.812;2024-02-15T12:47:52;890.03;;;830.20;;
17197;SDS011;8715;51.010;6.812;2024-02-15T12:50:38;888.63;;;828.75;;
17197;SDS011;8715;51.010;6.812;2024-02-15T12:53:24;889.58;;;829.65;;
17197;SDS011;8715;51.010;6.812;2024-02-15T12:56:08;891.22;;;831.53;;
17197;SDS011;8715;51.010;6.812;2024-02-15T12:58:54;891.45;;;831.70;;
17197;SDS011;8715;51.010;6.812;2024-02-15T13:01:39;888.63;;;828.97;;
17197;SDS011;8715;51.010;6.812;2024-02-15T13:04:24;885.92;;;826.78;;
17197;SDS011;8715;51.010;6.812;2024-02-15T13:07:11;887.63;;;828.47;;
17197;SDS011;8715;51.010;6.812;2024-02-15T13:09:57;885.72;;;826.55;;
17197;SDS011;8715;51.010;6.812;2024-02-15T13:12:42;887.88;;;828.33;;
17197;SDS011;8715;51.010;6.812;2024-02-15T13:15:28;886.15;;;827.03;;
17197;SDS011;8715;51.010;6.812;2024-02-15T13:18:16;887.10;;;828.15;;
17197;SDS011;8715;51.010;6.812;2024-02-15T13:21:01;886.85;;;827.72;;
17197;SDS011;8715;51.010;6.812;2024-02-15T13:26:35;883.70;;;825.50;;
17197;SDS011;8715;51.010;6.812;2024-02-15T13:29:20;882.42;;;824.08;;
17197;SDS011;8715;51.010;6.812;2024-02-15T13:32:07;884.53;;;825.85;;
17197;SDS011;8715;51.010;6.812;2024-02-15T13:34:56;881.53;;;823.22;;
17197;SDS011;8715;51.010;6.812;2024-02-15T13:37:45;881.53;;;823.22;;
17197;SDS011;8715;51.010;6.812;2024-02-15T13:40:30;882.67;;;824.30;;
17197;SDS011;8715;51.010;6.812;2024-02-15T13:43:17;883.58;;;825.15;;
17197;SDS011;8715;51.010;6.812;2024-02-15T13:46:03;885.45;;;826.92;;
17197;SDS011;8715;51.010;6.812;2024-02-15T13:48:48;882.50;;;824.30;;
17197;SDS011;8715;51.010;6.812;2024-02-15T13:51:33;880.05;;;821.97;;
17197;SDS011;8715;51.010;6.812;2024-02-15T13:54:18;881.08;;;822.95;;
17197;SDS011;8715;51.010;6.812;2024-02-15T13:57:06;883.28;;;824.83;;
17197;SDS011;8715;51.010;6.812;2024-02-15T13:59:52;882.38;;;824.10;;
17197;SDS011;8715;51.010;6.812;2024-02-15T14:02:38;885.45;;;826.92;;
17197;SDS011;8715;51.010;6.812;2024-02-15T14:05:23;887.20;;;828.58;;
17197;SDS011;8715;51.010;6.812;2024-02-15T14:08:09;882.00;;;823.70;;
17197;SDS011;8715;51.010;6.812;2024-02-15T14:10:55;882.22;;;824.20;;
17197;SDS011;8715;51.010;6.812;2024-02-15T14:13:40;881.30;;;823.50;;
17197;SDS011;8715;51.010;6.812;2024-02-15T14:16:27;883.53;;;825.10;;
17197;SDS011;8715;51.010;6.812;2024-02-15T14:19:13;885.88;;;827.08;;
17197;SDS011;8715;51.010;6.812;2024-02-15T14:21:58;885.72;;;827.20;;
17197;SDS011;8715;51.010;6.812;2024-02-15T14:24:43;886.25;;;827.38;;
17197;SDS011;8715;51.010;6.812;2024-02-15T14:27:28;885.17;;;826.38;;
17197;SDS011;8715;51.010;6.812;2024-02-15T14:30:13;883.67;;;825.17;;
17197;SDS011;8715;51.010;6.812;2024-02-15T14:33:22;890.38;;;831.17;;
17197;SDS011;8715;51.010;6.812;2024-02-15T14:36:07;880.70;;;822.45;;
17197;SDS011;8715;51.010;6.812;2024-02-15T14:38:53;886.72;;;827.95;;
17197;SDS011;8715;51.010;6.812;2024-02-15T14:41:38;884.55;;;826.05;;
17197;SDS011;8715;51.010;6.812;2024-02-15T14:44:24;889.75;;;830.85;;
17197;SDS011;8715;51.010;6.812;2024-02-15T14:47:09;888.40;;;829.67;;
17197;SDS011;8715;51.010;6.812;2024-02-15T14:49:56;882.70;;;824.47;;
17197;SDS011;8715;51.010;6.812;2024-02-15T14:52:41;883.67;;;825.63;;
17197;SDS011;8715;51.010;6.812;2024-02-15T14:55:26;886.92;;;828.67;;
17197;SDS011;8715;51.010;6.812;2024-02-15T14:58:13;879.30;;;821.58;;
17197;SDS011;8715;51.010;6.812;2024-02-15T15:01:00;878.38;;;821.03;;
17197;SDS011;8715;51.010;6.812;2024-02-15T15:03:52;886.88;;;828.70;;
17197;SDS011;8715;51.010;6.812;2024-02-15T15:06:40;879.65;;;822.17;;
17197;SDS011;8715;51.010;6.812;2024-02-15T15:09:46;885.45;;;827.72;;
17197;SDS011;8715;51.010;6.812;2024-02-15T15:12:57;879.47;;;821.78;;
17197;SDS011;8715;51.010;6.812;2024-02-15T15:15:41;880.38;;;823.17;;
17197;SDS011;8715;51.010;6.812;2024-02-15T15:18:26;879.20;;;822.08;;
17197;SDS011;8715;51.010;6.812;2024-02-15T15:21:12;879.45;;;822.47;;
17197;SDS011;8715;51.010;6.812;2024-02-15T15:23:58;876.60;;;819.90;;
17197;SDS011;8715;51.010;6.812;2024-02-15T15:26:44;881.63;;;824.53;;
17197;SDS011;8715;51.010;6.812;2024-02-15T15:29:28;878.88;;;822.10;;
17197;SDS011;8715;51.010;6.812;2024-02-15T15:32:14;876.63;;;819.83;;
17197;SDS011;8715;51.010;6.812;2024-02-15T15:34:59;874.70;;;818.42;;
17197;SDS011;8715;51.010;6.812;2024-02-15T15:37:44;878.17;;;821.88;;
17197;SDS011;8715;51.010;6.812;2024-02-15T15:40:31;876.72;;;820.42;;
17197;SDS011;8715;51.010;6.812;2024-02-15T15:43:16;875.63;;;819.67;;
17197;SDS011;8715;51.010;6.812;2024-02-15T15:46:03;874.97;;;818.70;;
17197;SDS011;8715;51.010;6.812;2024-02-15T15:48:48;871.65;;;815.58;;
17197;SDS011;8715;51.010;6.812;2024-02-15T15:51:33;871.53;;;816.00;;
17197;SDS011;8715;51.010;6.812;2024-02-15T15:54:18;873.47;;;817.67;;
17197;SDS011;8715;51.010;6.812;2024-02-15T15:57:04;869.60;;;813.97;;
17197;SDS011;8715;51.010;6.812;2024-02-15T15:59:49;875.95;;;819.90;;
17197;SDS011;8715;51.010;6.812;2024-02-15T16:02:34;875.00;;;819.28;;
17197;SDS011;8715;51.010;6.812;2024-02-15T16:05:19;871.97;;;816.40;;
17197;SDS011;8715;51.010;6.812;2024-02-15T16:08:04;872.58;;;816.53;;
17197;SDS011;8715;51.010;6.812;2024-02-15T16:10:49;872.20;;;816.58;;
17197;SDS011;8715;51.010;6.812;2024-02-15T16:13:36;873.80;;;818.15;;
17197;SDS011;8715;51.010;6.812;2024-02-15T16:16:21;870.03;;;814.58;;
17197;SDS011;8715;51.010;6.812;2024-02-15T16:19:07;872.60;;;817.28;;